sensor_id;sensor_type;location;lat;lon;timestamp;pressure;altitude;pressure_sealevel;temperature;humidity
21869;BME280;11099;41.564;23.296;2023-07-30T00:01:27;97210.06;;;26.62;54.96
21869;BME280;11099;41.564;23.296;2023-07-30T00:03:52;97230.91;;;26.52;55.90
21869;BME280;11099;41.564;23.296;2023-07-30T00:06:18;97216.34;;;26.15;56.47
21869;BME280;11099;41.564;23.296;2023-07-30T00:08:43;97315.78;;;27.04;55.15
21869;BME280;11099;41.564;23.296;2023-07-30T00:11:09;97279.53;;;26.80;55.82
21869;BME280;11099;41.564;23.296;2023-07-30T00:13:34;97313.63;;;26.72;57.77
21869;BME280;11099;41.564;23.296;2023-07-30T00:15:59;97311.88;;;26.12;60.32
21869;BME280;11099;41.564;23.296;2023-07-30T00:18:25;97260.69;;;25.69;60.56
21869;BME280;11099;41.564;23.296;2023-07-30T00:20:50;97313.97;;;25.77;61.01
21869;BME280;11099;41.564;23.296;2023-07-30T00:23:16;97272.69;;;25.75;60.56
21869;BME280;11099;41.564;23.296;2023-07-30T00:25:41;97287.34;;;25.54;61.40
21869;BME280;11099;41.564;23.296;2023-07-30T00:28:07;97277.06;;;25.38;62.17
21869;BME280;11099;41.564;23.296;2023-07-30T00:30:32;97212.25;;;24.92;62.47
21869;BME280;11099;41.564;23.296;2023-07-30T00:32:58;97310.22;;;26.18;59.53
21869;BME280;11099;41.564;23.296;2023-07-30T00:35:23;97215.56;;;25.91;57.72
21869;BME280;11099;41.564;23.296;2023-07-30T00:37:49;97287.22;;;26.19;58.13
21869;BME280;11099;41.564;23.296;2023-07-30T00:40:14;97274.34;;;25.65;60.36
21869;BME280;11099;41.564;23.296;2023-07-30T00:42:40;97172.56;;;25.21;59.60
21869;BME280;11099;41.564;23.296;2023-07-30T00:45:06;97272.91;;;25.57;60.48
21869;BME280;11099;41.564;23.296;2023-07-30T00:47:32;97267.66;;;25.43;61.03
21869;BME280;11099;41.564;23.296;2023-07-30T00:49:58;97204.50;;;25.21;60.67
21869;BME280;11099;41.564;23.296;2023-07-30T00:52:24;97218.53;;;24.85;62.78
21869;BME280;11099;41.564;23.296;2023-07-30T00:54:51;97234.25;;;24.70;63.79
21869;BME280;11099;41.564;23.296;2023-07-30T00:57:18;97196.53;;;25.07;61.62
21869;BME280;11099;41.564;23.296;2023-07-30T00:59:45;97282.38;;;26.03;60.08
21869;BME280;11099;41.564;23.296;2023-07-30T01:02:11;97319.66;;;26.13;60.13
21869;BME280;11099;41.564;23.296;2023-07-30T01:04:37;97321.50;;;26.20;60.13
21869;BME280;11099;41.564;23.296;2023-07-30T01:07:05;97298.41;;;26.01;60.08
21869;BME280;11099;41.564;23.296;2023-07-30T01:09:31;97293.81;;;26.21;59.29
21869;BME280;11099;41.564;23.296;2023-07-30T01:11:58;97264.69;;;25.61;60.96
21869;BME280;11099;41.564;23.296;2023-07-30T01:14:24;97244.78;;;25.64;60.50
21869;BME280;11099;41.564;23.296;2023-07-30T01:16:51;97232.66;;;25.95;59.15
21869;BME280;11099;41.564;23.296;2023-07-30T01:19:17;97206.31;;;25.01;62.59
21869;BME280;11099;41.564;23.296;2023-07-30T01:21:42;97255.16;;;25.45;61.88
21869;BME280;11099;41.564;23.296;2023-07-30T01:24:08;97263.97;;;25.26;62.57
21869;BME280;11099;41.564;23.296;2023-07-30T01:26:55;97313.41;;;25.28;64.16
21869;BME280;11099;41.564;23.296;2023-07-30T01:29:28;97223.75;;;24.35;64.94
21869;BME280;11099;41.564;23.296;2023-07-30T01:32:01;97289.31;;;24.89;64.48
21869;BME280;11099;41.564;23.296;2023-07-30T01:34:28;97258.13;;;24.93;63.54
21869;BME280;11099;41.564;23.296;2023-07-30T01:36:55;97262.41;;;24.94;63.12
21869;BME280;11099;41.564;23.296;2023-07-30T01:39:24;97275.22;;;24.94;63.89
21869;BME280;11099;41.564;23.296;2023-07-30T01:41:55;97196.88;;;25.05;61.13
21869;BME280;11099;41.564;23.296;2023-07-30T01:44:20;97292.44;;;25.21;63.03
21869;BME280;11099;41.564;23.296;2023-07-30T01:46:46;97319.81;;;25.11;64.06
21869;BME280;11099;41.564;23.296;2023-07-30T01:49:12;97316.69;;;25.12;63.98
21869;BME280;11099;41.564;23.296;2023-07-30T01:51:37;97300.03;;;25.03;63.53
21869;BME280;11099;41.564;23.296;2023-07-30T01:54:03;97304.94;;;25.19;63.34
21869;BME280;11099;41.564;23.296;2023-07-30T01:56:28;97298.94;;;25.31;62.58
21869;BME280;11099;41.564;23.296;2023-07-30T01:58:54;97255.06;;;24.50;64.19
21869;BME280;11099;41.564;23.296;2023-07-30T02:01:19;97265.91;;;24.12;66.32
21869;BME280;11099;41.564;23.296;2023-07-30T02:03:45;97280.34;;;24.51;64.51
21869;BME280;11099;41.564;23.296;2023-07-30T02:06:11;97306.84;;;24.43;65.61
21869;BME280;11099;41.564;23.296;2023-07-30T02:08:37;97236.31;;;24.18;65.25
21869;BME280;11099;41.564;23.296;2023-07-30T02:11:02;97164.72;;;23.87;62.33
21869;BME280;11099;41.564;23.296;2023-07-30T02:13:28;97284.78;;;24.75;59.98
21869;BME280;11099;41.564;23.296;2023-07-30T02:15:53;97324.19;;;25.01;57.90
21869;BME280;11099;41.564;23.296;2023-07-30T02:18:19;97194.97;;;24.34;56.88
21869;BME280;11099;41.564;23.296;2023-07-30T02:20:44;97219.34;;;24.48;56.47
21869;BME280;11099;41.564;23.296;2023-07-30T02:23:10;97271.97;;;24.72;57.37
21869;BME280;11099;41.564;23.296;2023-07-30T02:25:37;97283.25;;;25.08;56.98
21869;BME280;11099;41.564;23.296;2023-07-30T02:28:03;97322.06;;;25.50;56.71
21869;BME280;11099;41.564;23.296;2023-07-30T02:30:28;97267.75;;;25.02;56.95
21869;BME280;11099;41.564;23.296;2023-07-30T02:32:54;97225.00;;;24.98;55.79
21869;BME280;11099;41.564;23.296;2023-07-30T02:35:19;97300.38;;;25.70;55.07
21869;BME280;11099;41.564;23.296;2023-07-30T02:37:45;97287.66;;;25.60;54.19
21869;BME280;11099;41.564;23.296;2023-07-30T02:40:11;97322.72;;;25.61;55.12
21869;BME280;11099;41.564;23.296;2023-07-30T02:42:36;97257.22;;;24.69;56.84
21869;BME280;11099;41.564;23.296;2023-07-30T02:45:02;97243.16;;;24.33;58.18
21869;BME280;11099;41.564;23.296;2023-07-30T02:47:28;97305.66;;;24.85;58.07
21869;BME280;11099;41.564;23.296;2023-07-30T02:49:54;97291.72;;;24.80;58.32
21869;BME280;11099;41.564;23.296;2023-07-30T02:52:19;97276.38;;;24.59;57.86
21869;BME280;11099;41.564;23.296;2023-07-30T02:54:45;97290.06;;;24.52;57.42
21869;BME280;11099;41.564;23.296;2023-07-30T02:57:10;97321.34;;;24.74;57.06
21869;BME280;11099;41.564;23.296;2023-07-30T02:59:36;97243.63;;;24.25;56.72
21869;BME280;11099;41.564;23.296;2023-07-30T03:02:03;97318.16;;;24.34;57.85
21869;BME280;11099;41.564;23.296;2023-07-30T03:04:30;97328.59;;;24.43;57.93
21869;BME280;11099;41.564;23.296;2023-07-30T03:06:56;97258.44;;;23.61;58.47
21869;BME280;11099;41.564;23.296;2023-07-30T03:09:21;97342.81;;;24.09;58.71
21869;BME280;11099;41.564;23.296;2023-07-30T03:11:48;97312.16;;;24.05;58.44
21869;BME280;11099;41.564;23.296;2023-07-30T03:14:14;97362.47;;;24.31;58.39
21869;BME280;11099;41.564;23.296;2023-07-30T03:16:40;97350.44;;;24.32;57.97
21869;BME280;11099;41.564;23.296;2023-07-30T03:19:05;97270.91;;;23.51;58.72
21869;BME280;11099;41.564;23.296;2023-07-30T03:21:31;97359.91;;;24.10;59.37
21869;BME280;11099;41.564;23.296;2023-07-30T03:23:56;97298.81;;;23.70;58.87
21869;BME280;11099;41.564;23.296;2023-07-30T03:26:22;97330.34;;;24.15;57.93
21869;BME280;11099;41.564;23.296;2023-07-30T03:28:47;97319.94;;;24.03;58.17
21869;BME280;11099;41.564;23.296;2023-07-30T03:31:13;97353.97;;;24.29;58.55
21869;BME280;11099;41.564;23.296;2023-07-30T03:33:39;97347.00;;;24.21;58.33
21869;BME280;11099;41.564;23.296;2023-07-30T03:36:09;97327.06;;;23.86;59.28
21869;BME280;11099;41.564;23.296;2023-07-30T03:38:35;97227.91;;;23.43;59.44
21869;BME280;11099;41.564;23.296;2023-07-30T03:41:00;97344.53;;;24.44;61.16
21869;BME280;11099;41.564;23.296;2023-07-30T03:43:26;97301.81;;;23.86;64.45
21869;BME280;11099;41.564;23.296;2023-07-30T03:45:51;97188.66;;;22.70;68.42
21869;BME280;11099;41.564;23.296;2023-07-30T03:48:17;97332.03;;;23.95;67.31
21869;BME280;11099;41.564;23.296;2023-07-30T03:50:42;97346.84;;;23.90;67.94
21869;BME280;11099;41.564;23.296;2023-07-30T03:53:08;97321.63;;;24.42;65.59
21869;BME280;11099;41.564;23.296;2023-07-30T03:55:33;97266.44;;;23.89;67.15
21869;BME280;11099;41.564;23.296;2023-07-30T03:57:58;97169.16;;;23.66;64.16
21869;BME280;11099;41.564;23.296;2023-07-30T04:00:24;97296.28;;;24.90;63.12
21869;BME280;11099;41.564;23.296;2023-07-30T04:02:49;97229.16;;;24.38;63.33
21869;BME280;11099;41.564;23.296;2023-07-30T04:05:15;97364.44;;;25.55;62.79
21869;BME280;11099;41.564;23.296;2023-07-30T04:07:40;97374.28;;;26.10;60.12
21869;BME280;11099;41.564;23.296;2023-07-30T04:10:06;97374.94;;;26.17;58.38
21869;BME280;11099;41.564;23.296;2023-07-30T04:12:32;97275.16;;;25.35;58.70
21869;BME280;11099;41.564;23.296;2023-07-30T04:14:57;97267.97;;;25.79;57.11
21869;BME280;11099;41.564;23.296;2023-07-30T04:17:22;97307.13;;;26.66;54.79
21869;BME280;11099;41.564;23.296;2023-07-30T04:19:48;97336.25;;;26.49;56.67
21869;BME280;11099;41.564;23.296;2023-07-30T04:22:13;97299.09;;;26.32;57.07
21869;BME280;11099;41.564;23.296;2023-07-30T04:24:39;97306.38;;;26.39;55.01
21869;BME280;11099;41.564;23.296;2023-07-30T04:27:05;97284.31;;;26.30;54.53
21869;BME280;11099;41.564;23.296;2023-07-30T04:29:30;97352.81;;;27.85;49.80
21869;BME280;11099;41.564;23.296;2023-07-30T04:31:56;97351.91;;;29.06;46.62
21869;BME280;11099;41.564;23.296;2023-07-30T04:34:21;97363.06;;;28.17;47.11
21869;BME280;11099;41.564;23.296;2023-07-30T04:36:47;97382.38;;;28.10;46.89
21869;BME280;11099;41.564;23.296;2023-07-30T04:39:12;97353.44;;;28.45;46.97
21869;BME280;11099;41.564;23.296;2023-07-30T04:41:38;97386.78;;;29.05;45.37
21869;BME280;11099;41.564;23.296;2023-07-30T04:44:03;97360.47;;;29.37;43.64
21869;BME280;11099;41.564;23.296;2023-07-30T04:46:29;97284.09;;;28.65;43.88
21869;BME280;11099;41.564;23.296;2023-07-30T04:48:55;97350.91;;;29.29;43.01
21869;BME280;11099;41.564;23.296;2023-07-30T04:51:21;97377.16;;;28.68;44.78
21869;BME280;11099;41.564;23.296;2023-07-30T04:53:46;97310.81;;;28.60;44.22
21869;BME280;11099;41.564;23.296;2023-07-30T04:56:12;97360.13;;;29.06;43.77
21869;BME280;11099;41.564;23.296;2023-07-30T04:58:37;97337.41;;;29.63;42.17
21869;BME280;11099;41.564;23.296;2023-07-30T05:01:03;97289.50;;;29.39;42.35
21869;BME280;11099;41.564;23.296;2023-07-30T05:03:28;97341.19;;;30.33;41.11
21869;BME280;11099;41.564;23.296;2023-07-30T05:05:54;97342.91;;;29.76;42.17
21869;BME280;11099;41.564;23.296;2023-07-30T05:08:19;97368.72;;;29.79;42.58
21869;BME280;11099;41.564;23.296;2023-07-30T05:10:45;97368.16;;;28.35;45.38
21869;BME280;11099;41.564;23.296;2023-07-30T05:13:10;97337.91;;;28.06;46.26
21869;BME280;11099;41.564;23.296;2023-07-30T05:15:38;97314.81;;;27.91;46.74
21869;BME280;11099;41.564;23.296;2023-07-30T05:18:03;97305.06;;;27.90;47.17
21869;BME280;11099;41.564;23.296;2023-07-30T05:20:29;97258.22;;;27.88;46.39
21869;BME280;11099;41.564;23.296;2023-07-30T05:22:55;97358.84;;;28.49;46.45
21869;BME280;11099;41.564;23.296;2023-07-30T05:25:20;97364.00;;;28.92;44.99
21869;BME280;11099;41.564;23.296;2023-07-30T05:30:41;97397.13;;;29.43;43.92
21869;BME280;11099;41.564;23.296;2023-07-30T05:33:06;97375.06;;;29.76;42.70
21869;BME280;11099;41.564;23.296;2023-07-30T05:35:32;97390.03;;;30.51;40.97
21869;BME280;11099;41.564;23.296;2023-07-30T05:37:57;97338.06;;;30.69;40.03
21869;BME280;11099;41.564;23.296;2023-07-30T05:40:23;97392.72;;;31.24;39.60
21869;BME280;11099;41.564;23.296;2023-07-30T05:42:48;97395.50;;;30.64;39.70
21869;BME280;11099;41.564;23.296;2023-07-30T05:45:14;97395.47;;;30.16;40.50
21869;BME280;11099;41.564;23.296;2023-07-30T05:47:40;97359.41;;;30.27;40.27
21869;BME280;11099;41.564;23.296;2023-07-30T05:50:09;97343.94;;;30.33;40.05
21869;BME280;11099;41.564;23.296;2023-07-30T05:52:34;97359.47;;;30.49;40.00
21869;BME280;11099;41.564;23.296;2023-07-30T05:55:00;97367.34;;;31.42;38.32
21869;BME280;11099;41.564;23.296;2023-07-30T05:57:25;97345.94;;;30.67;39.51
21869;BME280;11099;41.564;23.296;2023-07-30T05:59:51;97385.59;;;31.70;38.39
21869;BME280;11099;41.564;23.296;2023-07-30T06:02:17;97362.88;;;31.57;38.37
21869;BME280;11099;41.564;23.296;2023-07-30T06:04:42;97376.13;;;31.28;39.34
21869;BME280;11099;41.564;23.296;2023-07-30T06:07:08;97308.78;;;31.85;37.40
21869;BME280;11099;41.564;23.296;2023-07-30T06:09:33;97314.03;;;31.70;37.76
21869;BME280;11099;41.564;23.296;2023-07-30T06:11:59;97298.28;;;30.96;38.65
21869;BME280;11099;41.564;23.296;2023-07-30T06:14:25;97302.03;;;30.89;38.88
21869;BME280;11099;41.564;23.296;2023-07-30T06:16:51;97408.31;;;31.84;38.67
21869;BME280;11099;41.564;23.296;2023-07-30T06:19:17;97413.72;;;31.96;38.26
21869;BME280;11099;41.564;23.296;2023-07-30T06:21:42;97402.47;;;32.04;37.95
21869;BME280;11099;41.564;23.296;2023-07-30T06:24:08;97395.44;;;31.81;38.27
21869;BME280;11099;41.564;23.296;2023-07-30T06:26:33;97378.56;;;31.47;38.75
21869;BME280;11099;41.564;23.296;2023-07-30T06:28:59;97403.06;;;32.08;38.06
21869;BME280;11099;41.564;23.296;2023-07-30T06:31:24;97339.63;;;31.58;38.03
21869;BME280;11099;41.564;23.296;2023-07-30T06:33:50;97344.88;;;31.87;37.63
21869;BME280;11099;41.564;23.296;2023-07-30T06:36:16;97373.34;;;32.34;37.35
21869;BME280;11099;41.564;23.296;2023-07-30T06:38:41;97374.66;;;32.60;36.53
21869;BME280;11099;41.564;23.296;2023-07-30T06:41:07;97330.13;;;32.80;36.17
21869;BME280;11099;41.564;23.296;2023-07-30T06:43:32;97366.47;;;33.24;35.65
21869;BME280;11099;41.564;23.296;2023-07-30T06:45:58;97356.59;;;32.50;36.91
21869;BME280;11099;41.564;23.296;2023-07-30T06:48:23;97378.00;;;32.37;37.45
21869;BME280;11099;41.564;23.296;2023-07-30T06:50:49;97323.25;;;32.17;37.30
21869;BME280;11099;41.564;23.296;2023-07-30T06:53:14;97320.19;;;32.64;36.87
21869;BME280;11099;41.564;23.296;2023-07-30T06:55:40;97308.53;;;32.42;37.07
21869;BME280;11099;41.564;23.296;2023-07-30T06:58:05;97334.22;;;32.39;37.11
21869;BME280;11099;41.564;23.296;2023-07-30T07:00:30;97321.91;;;32.31;37.26
21869;BME280;11099;41.564;23.296;2023-07-30T07:02:56;97299.09;;;32.21;36.52
21869;BME280;11099;41.564;23.296;2023-07-30T07:05:21;97346.16;;;32.05;37.48
21869;BME280;11099;41.564;23.296;2023-07-30T07:07:47;97358.09;;;31.80;38.24
21869;BME280;11099;41.564;23.296;2023-07-30T07:10:12;97370.09;;;31.86;37.96
21869;BME280;11099;41.564;23.296;2023-07-30T07:12:39;97355.25;;;31.83;38.50
21869;BME280;11099;41.564;23.296;2023-07-30T07:15:05;97291.34;;;31.57;38.26
21869;BME280;11099;41.564;23.296;2023-07-30T07:17:31;97358.72;;;32.06;38.27
21869;BME280;11099;41.564;23.296;2023-07-30T07:19:57;97310.75;;;31.85;37.68
21869;BME280;11099;41.564;23.296;2023-07-30T07:22:23;97335.16;;;31.73;38.22
21869;BME280;11099;41.564;23.296;2023-07-30T07:24:48;97343.69;;;32.38;37.54
21869;BME280;11099;41.564;23.296;2023-07-30T07:27:14;97326.41;;;32.37;37.48
21869;BME280;11099;41.564;23.296;2023-07-30T07:29:40;97270.03;;;32.20;36.87
21869;BME280;11099;41.564;23.296;2023-07-30T07:32:05;97342.38;;;32.11;37.89
21869;BME280;11099;41.564;23.296;2023-07-30T07:34:33;97321.91;;;32.31;37.35
21869;BME280;11099;41.564;23.296;2023-07-30T07:37:03;97239.25;;;32.12;37.10
21869;BME280;11099;41.564;23.296;2023-07-30T07:39:29;97288.94;;;33.04;36.29
21869;BME280;11099;41.564;23.296;2023-07-30T07:41:55;97287.09;;;32.83;36.54
21869;BME280;11099;41.564;23.296;2023-07-30T07:44:21;97310.38;;;32.82;36.93
21869;BME280;11099;41.564;23.296;2023-07-30T07:46:47;97229.69;;;32.44;36.72
21869;BME280;11099;41.564;23.296;2023-07-30T07:49:13;97245.38;;;32.16;36.88
21869;BME280;11099;41.564;23.296;2023-07-30T07:51:45;97321.81;;;32.43;37.64
21869;BME280;11099;41.564;23.296;2023-07-30T07:54:13;97317.28;;;32.95;37.13
21869;BME280;11099;41.564;23.296;2023-07-30T07:56:41;97277.47;;;32.60;36.95
21869;BME280;11099;41.564;23.296;2023-07-30T07:59:09;97303.97;;;32.94;36.68
21869;BME280;11099;41.564;23.296;2023-07-30T08:01:44;97304.59;;;32.89;36.56
21869;BME280;11099;41.564;23.296;2023-07-30T08:04:13;97273.94;;;32.77;36.93
21869;BME280;11099;41.564;23.296;2023-07-30T08:06:46;97305.63;;;32.82;37.19
21869;BME280;11099;41.564;23.296;2023-07-30T08:09:12;97311.31;;;32.69;37.22
21869;BME280;11099;41.564;23.296;2023-07-30T08:11:40;97293.50;;;32.43;37.47
21869;BME280;11099;41.564;23.296;2023-07-30T08:14:11;97293.81;;;32.63;37.14
21869;BME280;11099;41.564;23.296;2023-07-30T08:16:38;97286.81;;;32.81;37.70
21869;BME280;11099;41.564;23.296;2023-07-30T08:19:04;97320.66;;;32.99;37.29
21869;BME280;11099;41.564;23.296;2023-07-30T08:21:32;97263.34;;;32.39;37.90
21869;BME280;11099;41.564;23.296;2023-07-30T08:24:01;97229.38;;;32.70;37.54
21869;BME280;11099;41.564;23.296;2023-07-30T08:26:28;97194.16;;;32.46;37.89
21869;BME280;11099;41.564;23.296;2023-07-30T08:29:30;97299.50;;;33.15;37.04
21869;BME280;11099;41.564;23.296;2023-07-30T08:31:58;97289.09;;;32.64;37.69
21869;BME280;11099;41.564;23.296;2023-07-30T08:34:31;97239.19;;;32.43;37.57
21869;BME280;11099;41.564;23.296;2023-07-30T08:36:58;97255.41;;;32.87;36.78
21869;BME280;11099;41.564;23.296;2023-07-30T08:39:26;97258.28;;;32.74;37.81
21869;BME280;11099;41.564;23.296;2023-07-30T08:41:56;97258.56;;;33.22;36.63
21869;BME280;11099;41.564;23.296;2023-07-30T08:44:26;97285.09;;;33.11;37.15
21869;BME280;11099;41.564;23.296;2023-07-30T08:46:52;97234.56;;;32.77;37.21
21869;BME280;11099;41.564;23.296;2023-07-30T08:49:22;97229.53;;;32.57;37.28
21869;BME280;11099;41.564;23.296;2023-07-30T08:51:52;97269.94;;;32.51;38.00
21869;BME280;11099;41.564;23.296;2023-07-30T08:54:20;97260.47;;;32.70;37.80
21869;BME280;11099;41.564;23.296;2023-07-30T08:56:48;97274.41;;;33.03;37.16
21869;BME280;11099;41.564;23.296;2023-07-30T08:59:16;97243.13;;;33.16;36.35
21869;BME280;11099;41.564;23.296;2023-07-30T09:01:45;97175.56;;;33.11;35.82
21869;BME280;11099;41.564;23.296;2023-07-30T09:04:15;97264.03;;;33.59;35.84
21869;BME280;11099;41.564;23.296;2023-07-30T09:06:47;97244.91;;;33.79;35.45
21869;BME280;11099;41.564;23.296;2023-07-30T09:09:21;97251.50;;;33.82;35.98
21869;BME280;11099;41.564;23.296;2023-07-30T09:12:02;97258.22;;;33.90;36.44
21869;BME280;11099;41.564;23.296;2023-07-30T09:14:30;97189.22;;;32.96;36.91
21869;BME280;11099;41.564;23.296;2023-07-30T09:17:04;97221.53;;;33.14;37.45
21869;BME280;11099;41.564;23.296;2023-07-30T09:19:36;97239.38;;;33.37;38.00
21869;BME280;11099;41.564;23.296;2023-07-30T09:22:06;97257.53;;;33.62;36.75
21869;BME280;11099;41.564;23.296;2023-07-30T09:24:32;97247.44;;;34.01;36.18
21869;BME280;11099;41.564;23.296;2023-07-30T09:27:01;97243.94;;;33.92;36.70
21869;BME280;11099;41.564;23.296;2023-07-30T09:29:27;97165.88;;;33.25;36.99
21869;BME280;11099;41.564;23.296;2023-07-30T09:31:54;97240.72;;;33.84;37.52
21869;BME280;11099;41.564;23.296;2023-07-30T09:34:20;97142.56;;;33.26;37.12
21869;BME280;11099;41.564;23.296;2023-07-30T09:36:47;97236.03;;;34.08;36.95
21869;BME280;11099;41.564;23.296;2023-07-30T09:39:26;97229.56;;;34.36;36.84
21869;BME280;11099;41.564;23.296;2023-07-30T09:41:59;97200.84;;;34.18;35.85
21869;BME280;11099;41.564;23.296;2023-07-30T09:44:25;97198.13;;;33.52;37.19
21869;BME280;11099;41.564;23.296;2023-07-30T09:46:52;97226.09;;;33.69;36.53
21869;BME280;11099;41.564;23.296;2023-07-30T09:49:18;97238.88;;;34.23;36.25
21869;BME280;11099;41.564;23.296;2023-07-30T09:51:44;97229.00;;;34.07;36.24
21869;BME280;11099;41.564;23.296;2023-07-30T09:54:11;97220.53;;;33.78;35.86
21869;BME280;11099;41.564;23.296;2023-07-30T09:56:38;97213.06;;;34.02;36.04
21869;BME280;11099;41.564;23.296;2023-07-30T09:59:08;97217.78;;;34.50;36.03
21869;BME280;11099;41.564;23.296;2023-07-30T10:01:46;97156.94;;;33.96;35.41
21869;BME280;11099;41.564;23.296;2023-07-30T10:04:15;97183.31;;;34.21;35.88
21869;BME280;11099;41.564;23.296;2023-07-30T10:09:20;97157.41;;;34.19;35.38
21869;BME280;11099;41.564;23.296;2023-07-30T10:11:49;97193.16;;;34.76;33.77
21869;BME280;11099;41.564;23.296;2023-07-30T10:14:17;97185.84;;;34.10;34.55
21869;BME280;11099;41.564;23.296;2023-07-30T10:16:53;97177.44;;;34.43;35.13
21869;BME280;11099;41.564;23.296;2023-07-30T10:19:26;97131.78;;;33.94;35.22
21869;BME280;11099;41.564;23.296;2023-07-30T10:24:41;97133.66;;;33.88;34.75
21869;BME280;11099;41.564;23.296;2023-07-30T10:27:23;97171.63;;;34.02;34.87
21869;BME280;11099;41.564;23.296;2023-07-30T10:30:08;97084.19;;;33.99;34.99
21869;BME280;11099;41.564;23.296;2023-07-30T10:32:41;97170.44;;;34.72;34.42
21869;BME280;11099;41.564;23.296;2023-07-30T10:35:07;97145.50;;;34.96;34.20
21869;BME280;11099;41.564;23.296;2023-07-30T10:37:33;97169.31;;;34.93;33.63
21869;BME280;11099;41.564;23.296;2023-07-30T10:39:59;97160.84;;;34.97;33.38
21869;BME280;11099;41.564;23.296;2023-07-30T10:42:33;97130.69;;;34.54;33.21
21869;BME280;11099;41.564;23.296;2023-07-30T10:44:59;97104.94;;;34.93;32.72
21869;BME280;11099;41.564;23.296;2023-07-30T10:47:27;97077.19;;;34.87;32.52
21869;BME280;11099;41.564;23.296;2023-07-30T10:49:52;97157.00;;;35.38;30.57
21869;BME280;11099;41.564;23.296;2023-07-30T10:52:20;97112.00;;;35.08;32.35
21869;BME280;11099;41.564;23.296;2023-07-30T10:54:49;97045.59;;;34.58;31.86
21869;BME280;11099;41.564;23.296;2023-07-30T10:57:14;97044.16;;;34.48;31.49
21869;BME280;11099;41.564;23.296;2023-07-30T10:59:41;97136.72;;;34.97;30.67
21869;BME280;11099;41.564;23.296;2023-07-30T11:02:06;97069.88;;;34.69;30.41
21869;BME280;11099;41.564;23.296;2023-07-30T11:04:34;97125.25;;;35.04;30.57
21869;BME280;11099;41.564;23.296;2023-07-30T11:07:00;97008.31;;;34.69;29.72
21869;BME280;11099;41.564;23.296;2023-07-30T11:09:27;96996.66;;;34.79;29.91
21869;BME280;11099;41.564;23.296;2023-07-30T11:11:55;97130.53;;;35.52;28.94
21869;BME280;11099;41.564;23.296;2023-07-30T11:14:22;97127.69;;;35.32;29.66
21869;BME280;11099;41.564;23.296;2023-07-30T11:16:56;97108.97;;;35.06;29.82
21869;BME280;11099;41.564;23.296;2023-07-30T11:19:24;97130.78;;;35.19;29.24
21869;BME280;11099;41.564;23.296;2023-07-30T11:21:52;97121.56;;;34.63;30.51
21869;BME280;11099;41.564;23.296;2023-07-30T11:24:19;97067.59;;;33.85;29.83
21869;BME280;11099;41.564;23.296;2023-07-30T11:26:57;97077.94;;;34.14;30.04
21869;BME280;11099;41.564;23.296;2023-07-30T11:29:23;96997.66;;;33.78;29.50
21869;BME280;11099;41.564;23.296;2023-07-30T11:31:48;97077.25;;;34.57;28.87
21869;BME280;11099;41.564;23.296;2023-07-30T11:34:15;97105.06;;;34.54;30.50
21869;BME280;11099;41.564;23.296;2023-07-30T11:36:42;97107.22;;;34.35;30.80
21869;BME280;11099;41.564;23.296;2023-07-30T11:39:08;97007.72;;;33.52;29.88
21869;BME280;11099;41.564;23.296;2023-07-30T11:41:35;97101.09;;;33.92;31.35
21869;BME280;11099;41.564;23.296;2023-07-30T11:44:02;97027.63;;;33.23;30.97
21869;BME280;11099;41.564;23.296;2023-07-30T11:46:28;97034.16;;;33.82;31.06
21869;BME280;11099;41.564;23.296;2023-07-30T11:49:11;97087.47;;;34.13;30.84
21869;BME280;11099;41.564;23.296;2023-07-30T11:51:37;97089.59;;;33.94;29.79
21869;BME280;11099;41.564;23.296;2023-07-30T11:54:03;97066.78;;;33.84;30.50
21869;BME280;11099;41.564;23.296;2023-07-30T11:56:30;97085.59;;;33.95;30.38
21869;BME280;11099;41.564;23.296;2023-07-30T11:59:01;97054.47;;;33.94;30.25
21869;BME280;11099;41.564;23.296;2023-07-30T12:01:30;97076.44;;;34.13;30.95
21869;BME280;11099;41.564;23.296;2023-07-30T12:04:04;97070.72;;;33.92;30.60
21869;BME280;11099;41.564;23.296;2023-07-30T12:06:50;97033.38;;;33.82;31.37
21869;BME280;11099;41.564;23.296;2023-07-30T12:09:23;97033.06;;;34.04;31.02
21869;BME280;11099;41.564;23.296;2023-07-30T12:14:18;97060.94;;;34.59;29.62
21869;BME280;11099;41.564;23.296;2023-07-30T12:16:44;96977.63;;;34.22;28.97
21869;BME280;11099;41.564;23.296;2023-07-30T12:19:10;97009.28;;;34.51;30.01
21869;BME280;11099;41.564;23.296;2023-07-30T12:21:35;97010.50;;;34.65;29.98
21869;BME280;11099;41.564;23.296;2023-07-30T12:24:01;96976.50;;;34.44;28.75
21869;BME280;11099;41.564;23.296;2023-07-30T12:26:28;97049.81;;;35.04;29.33
21869;BME280;11099;41.564;23.296;2023-07-30T12:28:54;97008.28;;;35.19;29.21
21869;BME280;11099;41.564;23.296;2023-07-30T12:31:20;96960.38;;;34.92;29.32
21869;BME280;11099;41.564;23.296;2023-07-30T12:33:45;96998.13;;;35.30;29.10
21869;BME280;11099;41.564;23.296;2023-07-30T12:36:10;97027.63;;;35.54;29.11
21869;BME280;11099;41.564;23.296;2023-07-30T12:38:36;96978.75;;;35.10;29.32
21869;BME280;11099;41.564;23.296;2023-07-30T12:41:01;96974.09;;;35.22;29.83
21869;BME280;11099;41.564;23.296;2023-07-30T12:43:27;96922.41;;;34.93;29.23
21869;BME280;11099;41.564;23.296;2023-07-30T12:45:53;96978.72;;;35.45;29.00
21869;BME280;11099;41.564;23.296;2023-07-30T12:48:18;96986.03;;;35.69;29.37
21869;BME280;11099;41.564;23.296;2023-07-30T12:50:44;96887.19;;;35.08;29.42
21869;BME280;11099;41.564;23.296;2023-07-30T12:53:10;97009.88;;;35.25;29.50
21869;BME280;11099;41.564;23.296;2023-07-30T12:55:35;96993.41;;;35.36;29.86
21869;BME280;11099;41.564;23.296;2023-07-30T12:58:01;96932.13;;;35.23;29.57
21869;BME280;11099;41.564;23.296;2023-07-30T13:00:26;96941.28;;;35.50;29.60